createdAt,value
2024-03-25T00:00:13.827Z,0.00
2024-03-25T00:00:54.925Z,0.00
2024-03-25T00:01:15.068Z,0.00
2024-03-25T00:01:44.417Z,0.00
2024-03-25T00:02:15.680Z,0.00
2024-03-25T00:02:46.902Z,0.00
2024-03-25T00:03:17.394Z,0.00
2024-03-25T00:03:47.163Z,0.00
2024-03-25T00:04:17.387Z,0.00
2024-03-25T00:04:48.536Z,0.00
2024-03-25T00:05:19.759Z,0.00
2024-03-25T00:05:51.322Z,0.00
2024-03-25T00:06:21.486Z,0.00
2024-03-25T00:06:54.457Z,0.00
2024-03-25T00:07:23.303Z,0.00
2024-03-25T00:07:54.258Z,0.00
2024-03-25T00:08:26.542Z,0.00
2024-03-25T00:08:56.921Z,0.00
2024-03-25T00:09:29.209Z,0.00
2024-03-25T00:10:03.458Z,0.00
2024-03-25T00:10:32.224Z,0.00
2024-03-25T00:11:03.280Z,0.00
2024-03-25T00:11:33.643Z,0.00
2024-03-25T00:12:03.141Z,0.00
2024-03-25T00:12:33.929Z,0.00
2024-03-25T00:13:05.105Z,0.00
2024-03-25T00:13:37.058Z,0.00
2024-03-25T00:14:06.895Z,0.00
2024-03-25T00:14:55.942Z,0.00
2024-03-25T00:15:27.040Z,0.00
2024-03-25T00:15:39.437Z,0.00
2024-03-25T00:16:11.634Z,0.00
2024-03-25T00:16:42.236Z,0.00
2024-03-25T00:17:13.360Z,0.00
2024-03-25T00:17:45.305Z,0.00
2024-03-25T00:18:17.116Z,0.00
2024-03-25T00:18:47.316Z,0.00
2024-03-25T00:19:18.999Z,0.00
2024-03-25T00:19:49.135Z,0.00
2024-03-25T00:20:22.268Z,0.00
2024-03-25T00:20:49.688Z,0.00
2024-03-25T00:21:38.038Z,0.00
2024-03-25T00:21:51.566Z,0.00
2024-03-25T00:22:22.479Z,0.00
2024-03-25T00:22:53.545Z,0.00
2024-03-25T00:23:27.303Z,0.00
2024-03-25T00:23:55.786Z,0.00
2024-03-25T00:24:26.726Z,0.00
2024-03-25T00:24:57.330Z,0.00
2024-03-25T00:25:28.541Z,0.00
2024-03-25T00:25:59.734Z,0.00
2024-03-25T00:26:31.370Z,0.00
2024-03-25T00:27:02.023Z,0.00
2024-03-25T00:27:33.705Z,0.00
2024-03-25T00:28:03.831Z,0.00
2024-03-25T00:28:34.513Z,0.00
2024-03-25T00:29:06.147Z,0.00
2024-03-25T00:29:37.035Z,0.00
2024-03-25T00:30:08.287Z,0.00
2024-03-25T00:30:39.020Z,0.00
2024-03-25T00:31:09.470Z,0.00
2024-03-25T00:31:40.140Z,0.00
2024-03-25T00:32:11.526Z,0.00
2024-03-25T00:32:42.710Z,0.00
2024-03-25T00:33:13.621Z,0.00
2024-03-25T00:33:45.040Z,0.00
2024-03-25T00:34:15.904Z,0.00
2024-03-25T00:34:46.797Z,0.00
2024-03-25T00:35:18.696Z,0.00
2024-03-25T00:35:48.473Z,0.00
2024-03-25T00:36:19.225Z,0.00
2024-03-25T00:36:50.835Z,0.00
2024-03-25T00:37:22.122Z,0.00
2024-03-25T00:37:52.953Z,0.00
2024-03-25T00:38:23.461Z,0.00
2024-03-25T00:38:55.425Z,0.00
2024-03-25T00:39:25.916Z,0.00
2024-03-25T00:39:57.319Z,0.00
2024-03-25T00:40:27.703Z,0.00
2024-03-25T00:40:59.171Z,0.00
2024-03-25T00:41:29.308Z,0.00
2024-03-25T00:42:01.056Z,0.00
2024-03-25T00:42:31.379Z,0.00
2024-03-25T00:43:02.828Z,0.00
2024-03-25T00:43:33.562Z,0.00
2024-03-25T00:44:05.886Z,0.00
2024-03-25T00:44:35.998Z,0.00
2024-03-25T00:45:07.521Z,0.00
2024-03-25T00:45:38.079Z,0.00
2024-03-25T00:46:08.529Z,0.00
2024-03-25T00:46:40.035Z,0.00
2024-03-25T00:47:10.526Z,0.00
2024-03-25T00:47:41.475Z,0.00
2024-03-25T00:48:12.597Z,0.00
2024-03-25T00:48:43.463Z,0.00
2024-03-25T00:49:14.738Z,0.00
2024-03-25T00:49:45.429Z,0.00
2024-03-25T00:50:34.946Z,0.00
2024-03-25T00:50:47.789Z,0.00
2024-03-25T00:51:18.420Z,0.00
2024-03-25T00:51:49.602Z,0.00
2024-03-25T00:52:20.585Z,0.00
2024-03-25T00:52:51.627Z,0.00
2024-03-25T00:53:22.790Z,0.00
2024-03-25T00:53:53.552Z,0.00
2024-03-25T00:54:24.629Z,0.00
2024-03-25T00:54:56.039Z,0.00
2024-03-25T00:55:27.382Z,0.00
2024-03-25T00:55:58.049Z,0.00
2024-03-25T00:56:28.490Z,0.00
2024-03-25T00:56:59.622Z,0.00
2024-03-25T00:57:31.266Z,0.00
2024-03-25T00:58:01.828Z,0.00
2024-03-25T00:58:32.864Z,0.00
2024-03-25T00:59:20.785Z,0.00
2024-03-25T00:59:34.601Z,0.00
2024-03-25T01:01:31.698Z,0.00
2024-03-25T01:01:39.695Z,0.00
2024-03-25T01:02:10.074Z,0.00
2024-03-25T01:02:51.155Z,0.00
2024-03-25T01:03:11.794Z,0.00
2024-03-25T01:03:42.575Z,0.00
2024-03-25T01:04:14.582Z,0.00
2024-03-25T01:04:44.582Z,0.00
2024-03-25T01:05:16.109Z,0.00
2024-03-25T01:05:47.894Z,0.00
2024-03-25T01:06:18.168Z,0.00
2024-03-25T01:06:48.611Z,0.00
2024-03-25T01:07:19.510Z,0.00
2024-03-25T01:07:50.412Z,0.00
2024-03-25T01:09:06.830Z,0.00
2024-03-25T01:09:44.152Z,0.00
2024-03-25T01:09:55.057Z,0.00
2024-03-25T01:10:26.027Z,0.00
2024-03-25T01:10:57.069Z,0.00
2024-03-25T01:11:27.764Z,0.00
2024-03-25T01:12:00.037Z,0.00
2024-03-25T01:12:30.096Z,0.00
2024-03-25T01:13:01.136Z,0.00
2024-03-25T01:13:32.090Z,0.00
2024-03-25T01:14:03.178Z,0.00
2024-03-25T01:14:33.760Z,0.00
2024-03-25T01:15:06.400Z,0.00
2024-03-25T01:16:13.251Z,0.00
2024-03-25T01:16:43.881Z,0.00
2024-03-25T01:17:08.987Z,0.00
2024-03-25T01:17:40.140Z,0.00
2024-03-25T01:18:11.104Z,0.00
2024-03-25T01:18:41.819Z,0.00
2024-03-25T01:19:12.891Z,0.00
2024-03-25T01:19:44.682Z,0.00
2024-03-25T01:20:17.482Z,0.00
2024-03-25T01:20:47.847Z,0.00
2024-03-25T01:21:17.158Z,0.00
2024-03-25T01:21:49.701Z,0.00
2024-03-25T01:22:19.602Z,0.00
2024-03-25T01:23:02.930Z,0.00
2024-03-25T01:23:21.116Z,0.00
2024-03-25T01:23:54.513Z,0.00
2024-03-25T01:24:24.830Z,0.00
2024-03-25T01:25:07.167Z,0.00
2024-03-25T01:25:26.342Z,0.00
2024-03-25T01:25:58.406Z,0.00
2024-03-25T01:26:27.709Z,0.00
2024-03-25T01:26:59.796Z,0.00
2024-03-25T01:27:29.459Z,0.00
2024-03-25T01:28:00.828Z,0.00
2024-03-25T01:28:31.196Z,0.00
2024-03-25T01:29:02.036Z,0.00
2024-03-25T01:29:32.856Z,0.00
2024-03-25T01:30:06.661Z,0.00
2024-03-25T01:30:35.451Z,0.00
2024-03-25T01:31:07.341Z,0.00
2024-03-25T01:32:10.483Z,0.00
2024-03-25T01:32:38.851Z,0.00
2024-03-25T01:33:10.858Z,0.00
2024-03-25T01:33:41.961Z,0.00
2024-03-25T01:34:13.211Z,0.00
2024-03-25T01:34:44.060Z,0.00
2024-03-25T01:35:16.730Z,0.00
2024-03-25T01:35:49.228Z,0.00
2024-03-25T01:36:17.783Z,0.00
2024-03-25T01:36:50.318Z,0.00
2024-03-25T01:37:18.590Z,0.00
2024-03-25T01:37:50.114Z,0.00
2024-03-25T01:38:20.667Z,0.00
2024-03-25T01:38:51.831Z,0.00
2024-03-25T01:39:21.907Z,0.00
2024-03-25T01:39:54.432Z,0.00
2024-03-25T01:40:26.430Z,0.00
2024-03-25T01:40:57.413Z,0.00
2024-03-25T01:41:25.810Z,0.00
2024-03-25T01:41:58.207Z,0.00
2024-03-25T01:42:28.747Z,0.00
2024-03-25T01:42:59.715Z,0.00
2024-03-25T01:43:30.262Z,0.00
2024-03-25T01:44:03.554Z,0.00
2024-03-25T01:44:34.503Z,0.00
2024-03-25T01:45:07.116Z,0.00
2024-03-25T01:45:37.084Z,0.00
2024-03-25T01:46:06.773Z,0.00
2024-03-25T01:46:36.075Z,0.00
2024-03-25T01:47:08.971Z,0.00
2024-03-25T01:47:40.232Z,0.00
2024-03-25T01:48:09.587Z,0.00
2024-03-25T01:48:40.852Z,0.00
2024-03-25T01:49:10.799Z,0.00
2024-03-25T01:50:18.157Z,0.00
2024-03-25T01:50:46.762Z,0.00
2024-03-25T01:51:34.940Z,0.00
2024-03-25T01:51:50.238Z,0.00
2024-03-25T01:52:20.751Z,0.00
2024-03-25T01:53:10.050Z,0.00
2024-03-25T01:53:22.171Z,0.00
2024-03-25T01:53:54.409Z,0.00
2024-03-25T01:54:23.602Z,0.00
2024-03-25T01:54:52.783Z,0.00
2024-03-25T01:55:28.257Z,0.00
2024-03-25T01:55:55.368Z,0.00
2024-03-25T01:56:26.385Z,0.00
2024-03-25T01:56:58.342Z,0.00
2024-03-25T01:57:30.394Z,0.00
2024-03-25T01:58:03.907Z,0.00
2024-03-25T01:58:32.196Z,0.00
2024-03-25T01:59:09.138Z,0.00
2024-03-25T01:59:33.416Z,0.00
2024-03-25T02:00:08.695Z,0.00
2024-03-25T02:00:38.850Z,0.00
2024-03-25T02:01:07.992Z,0.00
2024-03-25T02:01:35.671Z,0.00
2024-03-25T02:02:23.722Z,0.00
2024-03-25T02:02:40.273Z,0.00
2024-03-25T02:03:10.695Z,0.00
2024-03-25T02:03:41.519Z,0.00
2024-03-25T02:04:12.169Z,0.00
2024-03-25T02:04:43.914Z,0.00
2024-03-25T02:05:17.304Z,0.00
2024-03-25T02:05:45.834Z,0.00
2024-03-25T02:06:17.288Z,0.00
2024-03-25T02:06:48.030Z,0.00
2024-03-25T02:07:20.637Z,0.00
2024-03-25T02:07:48.354Z,0.00
2024-03-25T02:08:20.132Z,0.00
2024-03-25T02:08:50.148Z,0.00
2024-03-25T02:09:22.277Z,0.00
2024-03-25T02:09:53.593Z,0.00
2024-03-25T02:10:24.525Z,0.00
2024-03-25T02:11:13.275Z,0.00
2024-03-25T02:11:26.344Z,0.00
2024-03-25T02:11:56.286Z,0.00
2024-03-25T02:12:30.017Z,0.00
2024-03-25T02:12:59.983Z,0.00
2024-03-25T02:13:31.518Z,0.00
2024-03-25T02:14:03.571Z,0.00
2024-03-25T02:14:33.418Z,0.00
2024-03-25T02:15:06.277Z,0.00
2024-03-25T02:15:32.364Z,0.00
2024-03-25T02:16:03.167Z,0.00
2024-03-25T02:16:34.845Z,0.00
2024-03-25T02:17:06.487Z,0.00
2024-03-25T02:17:37.798Z,0.00
2024-03-25T02:18:07.556Z,0.00
2024-03-25T02:18:40.737Z,0.00
2024-03-25T02:19:10.171Z,0.00
2024-03-25T02:19:41.030Z,0.00
2024-03-25T02:20:15.673Z,0.00
2024-03-25T02:20:46.693Z,0.00
2024-03-25T02:21:15.136Z,0.00
2024-03-25T02:21:49.264Z,0.00
2024-03-25T02:22:18.404Z,0.00
2024-03-25T02:22:48.680Z,0.00
2024-03-25T02:23:20.061Z,0.00
2024-03-25T02:23:49.623Z,0.00
2024-03-25T02:24:51.560Z,0.00
2024-03-25T02:25:23.482Z,0.00
2024-03-25T02:25:52.963Z,0.00
2024-03-25T02:26:24.488Z,0.00
2024-03-25T02:26:57.117Z,0.00
2024-03-25T02:27:26.690Z,0.00
2024-03-25T02:27:57.270Z,0.00
2024-03-25T02:28:29.519Z,0.00
2024-03-25T02:28:58.746Z,0.00
2024-03-25T02:29:33.250Z,0.00
2024-03-25T02:30:06.497Z,0.00
2024-03-25T02:30:34.375Z,0.00
2024-03-25T02:31:06.392Z,0.00
2024-03-25T02:31:36.384Z,0.00
2024-03-25T02:32:24.958Z,0.00
2024-03-25T02:32:38.263Z,0.00
2024-03-25T02:33:06.932Z,0.00
2024-03-25T02:33:37.568Z,0.00
2024-03-25T02:34:10.336Z,0.00
2024-03-25T02:34:42.158Z,0.00
2024-03-25T02:35:16.778Z,0.00
2024-03-25T02:35:45.054Z,0.00
2024-03-25T02:36:15.939Z,0.00
2024-03-25T02:36:46.060Z,0.00
2024-03-25T02:37:18.086Z,0.00
2024-03-25T02:37:48.495Z,0.00
2024-03-25T02:38:19.632Z,0.00
2024-03-25T02:38:50.527Z,0.00
2024-03-25T02:39:21.504Z,0.00
2024-03-25T02:39:50.668Z,0.00
2024-03-25T02:40:22.208Z,0.00
2024-03-25T02:40:53.912Z,0.00
2024-03-25T02:41:43.301Z,0.00
2024-03-25T02:41:54.844Z,0.00
2024-03-25T02:42:26.383Z,0.00
2024-03-25T02:42:55.219Z,0.00
2024-03-25T02:43:28.538Z,0.00
2024-03-25T02:44:30.508Z,0.00
2024-03-25T02:45:03.475Z,0.00
2024-03-25T02:45:32.356Z,0.00
2024-03-25T02:46:04.220Z,0.00
2024-03-25T02:46:34.323Z,0.00
2024-03-25T02:47:06.068Z,0.00
2024-03-25T02:48:06.581Z,0.00
2024-03-25T02:48:38.236Z,0.00
2024-03-25T02:49:09.158Z,0.00
2024-03-25T02:49:40.337Z,0.00
2024-03-25T02:50:31.536Z,0.00
2024-03-25T02:50:43.988Z,0.00
2024-03-25T02:51:16.053Z,0.00
2024-03-25T02:51:44.921Z,0.00
2024-03-25T02:52:16.299Z,0.00
2024-03-25T02:52:47.777Z,0.00
2024-03-25T02:53:23.686Z,0.00
2024-03-25T02:53:47.903Z,0.00
2024-03-25T02:54:18.205Z,0.00
2024-03-25T02:54:50.911Z,0.00
2024-03-25T02:55:22.887Z,0.00
2024-03-25T02:55:53.517Z,0.00
2024-03-25T02:56:55.697Z,0.00
2024-03-25T02:57:27.712Z,0.00
2024-03-25T02:57:57.095Z,0.00
2024-03-25T02:58:28.656Z,0.00
2024-03-25T02:58:59.875Z,0.00
2024-03-25T02:59:30.116Z,0.00
2024-03-25T03:00:01.742Z,0.00
2024-03-25T03:00:30.849Z,0.00
2024-03-25T03:01:04.128Z,0.00
2024-03-25T03:01:32.791Z,0.00
2024-03-25T03:02:06.218Z,0.00
2024-03-25T03:03:07.150Z,0.00
2024-03-25T03:03:43.100Z,0.00
2024-03-25T03:04:09.424Z,0.00
2024-03-25T03:04:40.654Z,0.00
2024-03-25T03:06:13.008Z,0.00
2024-03-25T03:06:44.812Z,0.00
2024-03-25T03:07:15.506Z,0.00
2024-03-25T03:07:45.782Z,0.00
2024-03-25T03:08:16.319Z,0.00
2024-03-25T03:08:46.254Z,0.00
2024-03-25T03:09:19.030Z,0.00
2024-03-25T03:10:26.379Z,0.00
2024-03-25T03:10:53.470Z,0.00
2024-03-25T03:11:25.069Z,0.00
2024-03-25T03:11:55.462Z,0.00
2024-03-25T03:12:26.130Z,0.00
2024-03-25T03:12:54.715Z,0.00
2024-03-25T03:13:25.291Z,0.00
2024-03-25T03:13:56.323Z,0.00
2024-03-25T03:14:26.621Z,0.00
2024-03-25T03:14:59.205Z,0.00
2024-03-25T03:15:32.251Z,0.00
2024-03-25T03:16:01.497Z,0.00
2024-03-25T03:16:31.371Z,0.00
2024-03-25T03:17:04.176Z,0.00
2024-03-25T03:17:35.350Z,0.00
2024-03-25T03:18:06.487Z,0.00
2024-03-25T03:18:37.177Z,0.00
2024-03-25T03:19:07.756Z,0.00
2024-03-25T03:20:38.513Z,0.00
2024-03-25T03:21:10.020Z,0.00
2024-03-25T03:21:41.689Z,0.00
2024-03-25T03:22:13.319Z,0.00
2024-03-25T03:22:44.611Z,0.00
2024-03-25T03:23:15.729Z,0.00
2024-03-25T03:23:45.790Z,0.00
2024-03-25T03:24:18.765Z,0.00
2024-03-25T03:24:54.369Z,0.00
2024-03-25T03:25:19.379Z,0.00
2024-03-25T03:25:49.212Z,0.00
2024-03-25T03:26:20.595Z,0.00
2024-03-25T03:26:50.546Z,0.00
2024-03-25T03:27:24.210Z,0.00
2024-03-25T03:27:56.829Z,0.00
2024-03-25T03:28:25.340Z,0.00
2024-03-25T03:28:57.301Z,0.00
2024-03-25T03:29:27.498Z,0.00
2024-03-25T03:29:56.460Z,0.00
2024-03-25T03:30:28.792Z,0.00
2024-03-25T03:30:58.565Z,0.00
2024-03-25T03:31:30.225Z,0.00
2024-03-25T03:32:01.169Z,0.00
2024-03-25T03:32:32.741Z,0.00
2024-03-25T03:33:03.453Z,0.00
2024-03-25T03:33:36.218Z,0.00
2024-03-25T03:34:06.152Z,0.00
2024-03-25T03:34:38.072Z,0.00
2024-03-25T03:35:09.521Z,0.00
2024-03-25T03:35:39.148Z,0.00
2024-03-25T03:36:10.964Z,0.00
2024-03-25T03:36:39.888Z,0.00
2024-03-25T03:37:11.356Z,0.00
2024-03-25T03:37:43.822Z,0.00
2024-03-25T03:38:13.910Z,0.00
2024-03-25T03:38:45.606Z,0.00
2024-03-25T03:39:17.369Z,0.00
2024-03-25T03:39:47.347Z,0.00
2024-03-25T03:40:18.440Z,0.00
2024-03-25T03:40:47.664Z,0.00
2024-03-25T03:41:19.233Z,0.00
2024-03-25T03:41:50.401Z,0.00
2024-03-25T03:42:20.840Z,0.00
2024-03-25T03:42:52.515Z,0.00
2024-03-25T03:43:23.355Z,0.00
2024-03-25T03:43:54.371Z,0.00
2024-03-25T03:44:28.124Z,0.00
2024-03-25T03:44:57.866Z,0.00
2024-03-25T03:45:29.324Z,0.00
2024-03-25T03:45:59.743Z,0.00
2024-03-25T03:46:29.618Z,0.00
2024-03-25T03:47:02.075Z,0.00
2024-03-25T03:47:33.010Z,0.00
2024-03-25T03:48:01.878Z,0.00
2024-03-25T03:48:32.473Z,0.00
2024-03-25T03:49:03.694Z,0.00
2024-03-25T03:49:34.042Z,0.00
2024-03-25T03:50:06.956Z,0.00
2024-03-25T03:50:36.197Z,0.00
2024-03-25T03:51:07.579Z,0.00
2024-03-25T03:51:38.382Z,0.00
2024-03-25T03:52:10.006Z,0.00
2024-03-25T03:52:40.395Z,0.00
2024-03-25T03:53:12.994Z,0.00
2024-03-25T03:53:42.716Z,0.00
2024-03-25T03:54:13.801Z,0.00
2024-03-25T03:54:44.625Z,0.00
2024-03-25T03:55:16.174Z,0.00
2024-03-25T03:55:46.298Z,0.00
2024-03-25T03:56:20.110Z,0.00
2024-03-25T03:56:48.534Z,0.00
2024-03-25T03:57:19.748Z,0.00
2024-03-25T03:57:53.837Z,0.00
2024-03-25T03:58:21.562Z,0.00
2024-03-25T03:58:52.546Z,0.00
2024-03-25T03:59:24.288Z,0.00
2024-03-25T03:59:54.481Z,0.00
2024-03-25T04:00:26.779Z,0.00
2024-03-25T04:00:56.646Z,0.00
2024-03-25T04:01:27.474Z,0.00
2024-03-25T04:01:58.618Z,0.00
2024-03-25T04:02:29.477Z,0.00
2024-03-25T04:03:00.429Z,0.00
2024-03-25T04:03:40.860Z,0.00
2024-03-25T04:04:03.045Z,0.00
2024-03-25T04:04:33.191Z,0.00
2024-03-25T04:05:04.586Z,0.00
2024-03-25T04:05:35.314Z,0.00
2024-03-25T04:06:06.182Z,0.00
2024-03-25T04:07:09.050Z,0.00
2024-03-25T04:07:39.185Z,0.00
2024-03-25T04:08:10.124Z,0.00
2024-03-25T04:08:41.222Z,0.00
2024-03-25T04:09:12.823Z,0.00
2024-03-25T04:09:43.205Z,0.00
2024-03-25T04:10:15.346Z,0.00
2024-03-25T04:10:45.605Z,0.00
2024-03-25T04:11:16.316Z,0.00
2024-03-25T04:11:47.497Z,0.00
2024-03-25T04:12:18.815Z,0.00
2024-03-25T04:12:49.747Z,0.00
2024-03-25T04:13:51.433Z,0.00
2024-03-25T04:14:23.469Z,0.00
2024-03-25T04:14:53.607Z,0.00
2024-03-25T04:15:24.575Z,0.00
2024-03-25T04:15:55.626Z,0.00
2024-03-25T04:16:26.290Z,0.00
2024-03-25T04:16:57.510Z,0.00
2024-03-25T04:17:28.353Z,0.00
2024-03-25T04:17:59.325Z,0.00
2024-03-25T04:18:47.429Z,0.00
2024-03-25T04:19:01.804Z,0.00
2024-03-25T04:19:32.726Z,0.00
2024-03-25T04:20:04.896Z,0.00
2024-03-25T04:20:34.365Z,0.00
2024-03-25T04:21:05.421Z,0.00
2024-03-25T04:21:36.169Z,0.00
2024-03-25T04:22:08.923Z,0.00
2024-03-25T04:22:38.326Z,0.00
2024-03-25T04:23:09.412Z,0.00
2024-03-25T04:23:41.693Z,0.00
2024-03-25T04:24:11.311Z,0.00
2024-03-25T04:24:43.454Z,0.00
2024-03-25T04:25:13.641Z,0.00
2024-03-25T04:25:45.405Z,0.00
2024-03-25T04:26:46.420Z,0.00
2024-03-25T04:27:17.182Z,0.00
2024-03-25T04:27:48.510Z,0.00
2024-03-25T04:28:19.458Z,0.00
2024-03-25T04:29:07.737Z,0.00
2024-03-25T04:29:21.553Z,0.00
2024-03-25T04:29:52.477Z,0.00
2024-03-25T04:30:24.375Z,0.00
2024-03-25T04:30:54.395Z,0.00
2024-03-25T04:31:25.668Z,0.00
2024-03-25T04:31:56.335Z,0.00
2024-03-25T04:32:27.639Z,0.00
2024-03-25T04:32:58.224Z,0.00
2024-03-25T04:33:29.798Z,0.00
2024-03-25T04:34:00.750Z,0.00
2024-03-25T04:34:31.886Z,0.00
2024-03-25T04:35:33.621Z,0.00
2024-03-25T04:36:05.235Z,0.00
2024-03-25T04:36:36.485Z,0.00
2024-03-25T04:37:06.772Z,0.00
2024-03-25T04:37:37.355Z,0.00
2024-03-25T04:38:08.648Z,0.00
2024-03-25T04:38:39.596Z,0.00
2024-03-25T04:39:10.670Z,0.00
2024-03-25T04:39:41.663Z,0.00
2024-03-25T04:40:13.277Z,0.00
2024-03-25T04:40:43.422Z,0.00
2024-03-25T04:41:15.059Z,0.00
2024-03-25T04:41:45.541Z,0.00
2024-03-25T04:42:16.344Z,0.00
2024-03-25T04:42:56.204Z,0.00
2024-03-25T04:43:18.485Z,0.00
2024-03-25T04:43:49.445Z,0.00
2024-03-25T04:44:20.603Z,0.00
2024-03-25T04:44:51.638Z,0.00
2024-03-25T04:45:24.108Z,0.00
2024-03-25T04:45:53.922Z,0.00
2024-03-25T04:46:24.418Z,0.00
2024-03-25T04:46:55.377Z,0.00
2024-03-25T04:47:26.409Z,0.00
2024-03-25T04:47:57.669Z,0.00
2024-03-25T04:48:29.316Z,0.00
2024-03-25T04:49:00.032Z,0.00
2024-03-25T04:50:02.611Z,0.00
2024-03-25T04:50:32.895Z,0.00
2024-03-25T04:51:03.732Z,0.00
2024-03-25T04:51:34.529Z,0.00
2024-03-25T04:52:05.509Z,0.00
2024-03-25T04:52:36.404Z,0.00
2024-03-25T04:53:07.537Z,0.00
2024-03-25T04:53:38.198Z,0.00
2024-03-25T04:54:10.738Z,0.00
2024-03-25T04:54:40.673Z,0.00
2024-03-25T04:55:11.338Z,0.00
2024-03-25T04:55:59.695Z,0.00
2024-03-25T04:56:14.721Z,0.00
2024-03-25T04:56:44.580Z,0.00
2024-03-25T04:57:16.558Z,0.00
2024-03-25T04:57:46.824Z,0.00
2024-03-25T04:58:17.637Z,0.00
2024-03-25T04:58:48.898Z,0.00
2024-03-25T04:59:19.674Z,0.00
2024-03-25T05:00:21.770Z,0.00
2024-03-25T05:01:21.983Z,0.00
2024-03-25T05:03:43.829Z,0.00
2024-03-25T05:03:58.588Z,0.00
2024-03-25T05:04:29.528Z,0.00
2024-03-25T05:05:00.776Z,0.36
2024-03-25T05:06:34.626Z,0.00
2024-03-25T05:07:05.691Z,0.36
2024-03-25T05:07:36.451Z,0.85
2024-03-25T05:08:07.332Z,0.36
2024-03-25T05:08:42.038Z,1.22
2024-03-25T05:09:08.693Z,1.22
2024-03-25T05:09:39.580Z,1.71
2024-03-25T05:10:11.705Z,1.71
2024-03-25T05:10:41.901Z,2.08
2024-03-25T05:11:43.358Z,1.71
2024-03-25T05:12:14.662Z,2.08
2024-03-25T05:12:45.444Z,1.71
2024-03-25T05:13:22.154Z,1.22
2024-03-25T05:14:04.974Z,2.08
2024-03-25T05:14:19.070Z,2.08
2024-03-25T05:14:50.037Z,1.71
2024-03-25T05:15:20.765Z,1.71
2024-03-25T05:15:51.986Z,2.08
2024-03-25T05:16:23.436Z,2.57
2024-03-25T05:16:54.559Z,2.57
2024-03-25T05:17:24.913Z,3.43
2024-03-25T05:17:55.512Z,3.79
2024-03-25T05:18:26.644Z,4.28
2024-03-25T05:18:57.621Z,4.77
2024-03-25T05:19:28.660Z,4.77
2024-03-25T05:19:59.940Z,4.77
2024-03-25T05:20:32.146Z,5.14
2024-03-25T05:21:01.843Z,5.14
2024-03-25T05:21:33.249Z,5.14
2024-03-25T05:22:03.718Z,5.63
2024-03-25T05:22:52.192Z,5.63
2024-03-25T05:23:06.343Z,5.63
2024-03-25T05:23:36.623Z,4.77
2024-03-25T05:24:08.239Z,4.77
2024-03-25T05:25:10.718Z,5.14
2024-03-25T05:25:40.700Z,4.28
2024-03-25T05:26:12.431Z,3.79
2024-03-25T05:26:42.950Z,3.79
2024-03-25T05:27:14.206Z,5.14
2024-03-25T05:27:45.494Z,5.63
2024-03-25T05:28:16.115Z,5.63
2024-03-25T05:28:47.456Z,5.14
2024-03-25T05:29:50.888Z,6.48
2024-03-25T05:30:20.253Z,6.85
2024-03-25T05:30:55.325Z,7.70
2024-03-25T05:31:21.487Z,8.19
2024-03-25T05:31:52.963Z,7.34
2024-03-25T05:32:24.380Z,5.99
2024-03-25T05:32:59.630Z,6.48
2024-03-25T05:33:25.785Z,6.85
2024-03-25T05:33:56.808Z,8.56
2024-03-25T05:34:27.881Z,10.39
2024-03-25T05:34:58.658Z,10.77
2024-03-25T05:35:29.481Z,11.25
2024-03-25T05:36:01.410Z,11.25
2024-03-25T05:36:31.758Z,12.11
2024-03-25T05:37:03.273Z,13.33
2024-03-25T05:37:33.867Z,15.17
2024-03-25T05:38:05.162Z,16.02
2024-03-25T05:38:35.732Z,17.25
2024-03-25T05:39:06.886Z,18.60
2024-03-25T05:39:37.751Z,19.45
2024-03-25T05:40:09.875Z,21.16
2024-03-25T05:40:39.921Z,22.02
2024-03-25T05:41:11.067Z,22.02
2024-03-25T05:41:42.047Z,22.87
2024-03-25T05:42:13.048Z,23.85
2024-03-25T05:43:14.818Z,23.85
2024-03-25T05:43:45.767Z,24.71
2024-03-25T05:44:16.607Z,25.07
2024-03-25T05:44:47.742Z,25.94
2024-03-25T05:45:18.968Z,25.56
2024-03-25T05:45:49.840Z,25.94
2024-03-25T05:46:21.473Z,24.22
2024-03-25T05:46:51.757Z,22.87
2024-03-25T05:47:23.060Z,22.02
2024-03-25T05:47:53.922Z,21.65
2024-03-25T05:48:25.011Z,21.65
2024-03-25T05:48:55.908Z,20.80
2024-03-25T05:49:57.795Z,21.16
2024-03-25T05:50:28.884Z,21.65
2024-03-25T05:50:59.993Z,22.87
2024-03-25T05:52:02.213Z,25.07
2024-03-25T05:52:33.328Z,24.22
2024-03-25T05:53:04.602Z,24.71
2024-03-25T05:53:34.660Z,22.87
2024-03-25T05:54:05.865Z,21.65
2024-03-25T05:54:37.033Z,23.85
2024-03-25T05:55:08.323Z,23.36
2024-03-25T05:55:38.962Z,22.02
2024-03-25T05:56:09.871Z,23.85
2024-03-25T05:56:40.873Z,26.42
2024-03-25T05:57:12.197Z,23.85
2024-03-25T05:57:43.276Z,23.85
2024-03-25T05:58:13.832Z,27.28
2024-03-25T05:58:44.582Z,27.65
2024-03-25T05:59:16.878Z,28.63
2024-03-25T06:00:22.174Z,30.34
2024-03-25T06:01:19.224Z,30.34
2024-03-25T06:01:50.897Z,31.56
2024-03-25T06:02:22.060Z,32.05
2024-03-25T06:02:52.919Z,32.05
2024-03-25T06:03:24.813Z,31.19
2024-03-25T06:03:54.990Z,32.90
2024-03-25T06:04:26.501Z,35.97
2024-03-25T06:04:56.974Z,42.45
2024-03-25T06:05:27.812Z,43.31
2024-03-25T06:05:58.995Z,41.59
2024-03-25T06:06:29.632Z,41.10
2024-03-25T06:07:00.904Z,42.45
2024-03-25T06:07:31.881Z,43.80
2024-03-25T06:08:04.862Z,44.16
2024-03-25T06:08:33.842Z,44.65
2024-03-25T06:09:05.040Z,45.02
2024-03-25T06:09:35.916Z,45.51
2024-03-25T06:10:07.618Z,48.07
2024-03-25T06:10:37.997Z,49.42
2024-03-25T06:11:08.899Z,47.71
2024-03-25T06:11:39.871Z,46.73
2024-03-25T06:12:13.263Z,46.36
2024-03-25T06:12:42.192Z,46.73
2024-03-25T06:13:13.198Z,48.56
2024-03-25T06:13:50.440Z,49.79
2024-03-25T06:14:15.492Z,50.65
2024-03-25T06:14:45.644Z,51.50
2024-03-25T06:15:17.001Z,52.85
2024-03-25T06:15:48.029Z,53.70
2024-03-25T06:16:18.881Z,53.34
2024-03-25T06:16:50.517Z,55.05
2024-03-25T06:17:21.352Z,54.56
2024-03-25T06:17:52.088Z,54.56
2024-03-25T06:18:23.829Z,54.19
2024-03-25T06:18:54.211Z,55.41
2024-03-25T06:19:25.751Z,56.76
2024-03-25T06:19:57.021Z,58.11
2024-03-25T06:20:54.753Z,62.39
2024-03-25T06:21:31.330Z,61.17
2024-03-25T06:22:19.414Z,60.68
2024-03-25T06:22:30.633Z,60.68
2024-03-25T06:23:21.513Z,62.88
2024-03-25T06:23:33.478Z,62.39
2024-03-25T06:24:34.682Z,50.65
2024-03-25T06:25:34.021Z,49.42
2024-03-25T06:25:36.914Z,45.87
2024-03-25T06:26:07.809Z,43.31
2024-03-25T06:26:44.551Z,43.31
2024-03-25T06:27:14.644Z,42.45
2024-03-25T06:27:41.100Z,43.31
2024-03-25T06:28:12.348Z,44.65
2024-03-25T06:28:43.823Z,46.73
2024-03-25T06:29:14.099Z,48.07
2024-03-25T06:29:44.669Z,51.50
2024-03-25T06:30:18.481Z,55.41
2024-03-25T06:30:47.646Z,58.11
2024-03-25T06:31:18.311Z,59.33
2024-03-25T06:31:51.928Z,62.02
2024-03-25T06:32:20.158Z,63.24
2024-03-25T06:32:52.716Z,67.16
2024-03-25T06:33:22.774Z,67.16
2024-03-25T06:33:53.507Z,68.87
2024-03-25T06:34:24.077Z,71.07
2024-03-25T06:34:55.983Z,74.50
2024-03-25T06:35:26.717Z,74.99
2024-03-25T06:36:31.168Z,84.53
2024-03-25T06:36:58.756Z,88.45
2024-03-25T06:37:29.690Z,94.07
2024-03-25T06:38:00.849Z,96.65
2024-03-25T06:38:31.935Z,100.19
2024-03-25T06:39:14.647Z,94.56
2024-03-25T06:39:34.174Z,101.05
2024-03-25T06:40:06.320Z,107.04
2024-03-25T06:40:36.479Z,95.42
2024-03-25T06:41:29.448Z,102.76
2024-03-25T06:41:48.569Z,97.99
2024-03-25T06:42:19.188Z,97.50
2024-03-25T06:42:49.154Z,97.50
2024-03-25T06:43:11.907Z,98.85
2024-03-25T06:43:42.822Z,96.65
2024-03-25T06:44:13.746Z,93.22
2024-03-25T06:44:44.309Z,89.79
2024-03-25T06:45:30.141Z,87.10
2024-03-25T06:45:46.060Z,86.24
2024-03-25T06:46:17.039Z,87.59
2024-03-25T06:46:50.805Z,88.45
2024-03-25T06:47:19.004Z,88.82
2024-03-25T06:47:50.162Z,91.51
2024-03-25T06:48:30.356Z,92.36
2024-03-25T06:49:09.836Z,94.07
2024-03-25T06:49:24.033Z,93.22
2024-03-25T06:49:54.872Z,90.16
2024-03-25T06:50:25.989Z,86.24
2024-03-25T06:50:55.914Z,83.19
2024-03-25T06:51:27.084Z,81.48
2024-03-25T06:51:57.849Z,82.82
2024-03-25T06:52:29.458Z,83.68
2024-03-25T06:53:04.300Z,84.53
2024-03-25T06:53:32.502Z,84.04
2024-03-25T06:54:02.181Z,83.19
2024-03-25T06:54:33.587Z,82.82
2024-03-25T06:55:05.082Z,82.82
2024-03-25T06:55:40.632Z,80.62
2024-03-25T06:56:26.960Z,80.62
2024-03-25T06:56:48.864Z,79.27
2024-03-25T06:57:08.705Z,77.19
2024-03-25T06:57:56.498Z,75.48
2024-03-25T06:58:10.445Z,74.50
2024-03-25T06:58:41.120Z,75.48
2024-03-25T06:59:12.304Z,76.34
2024-03-25T06:59:43.135Z,76.34
2024-03-25T07:00:14.886Z,76.34
2024-03-25T07:00:45.234Z,76.34
2024-03-25T07:01:25.668Z,77.56
2024-03-25T07:01:46.825Z,79.27
2024-03-25T07:02:20.126Z,81.97
2024-03-25T07:02:49.166Z,84.04
2024-03-25T07:03:21.079Z,84.04
2024-03-25T07:04:01.974Z,87.59
2024-03-25T07:04:23.069Z,90.65
2024-03-25T07:04:53.540Z,97.13
2024-03-25T07:05:29.309Z,101.05
2024-03-25T07:05:55.181Z,103.61
2024-03-25T07:06:26.339Z,106.68
2024-03-25T07:06:57.269Z,108.39
2024-03-25T07:07:59.200Z,110.59
2024-03-25T07:08:38.939Z,108.39
2024-03-25T07:09:01.748Z,105.82
2024-03-25T07:09:32.214Z,105.33
2024-03-25T07:10:03.930Z,104.48